createdAt,value
2019-06-27T00:00:18.881Z,99.90
2019-06-27T00:02:48.378Z,99.90
2019-06-27T00:05:17.858Z,99.90
2019-06-27T00:07:47.047Z,99.90
2019-06-27T00:10:16.628Z,99.90
2019-06-27T00:12:45.834Z,99.90
2019-06-27T00:15:15.190Z,99.90
2019-06-27T00:17:44.460Z,99.90
2019-06-27T00:20:13.702Z,99.90
2019-06-27T00:22:42.904Z,99.90
2019-06-27T00:25:12.352Z,99.90
2019-06-27T00:27:41.566Z,99.90
2019-06-27T00:30:10.897Z,99.90
2019-06-27T00:32:40.322Z,99.90
2019-06-27T00:35:12.732Z,99.90
2019-06-27T00:37:42.002Z,99.90
2019-06-27T00:40:12.622Z,99.90
2019-06-27T00:42:41.806Z,99.90
2019-06-27T00:45:11.207Z,99.90
2019-06-27T00:47:40.486Z,99.90
2019-06-27T00:50:10.064Z,99.90
2019-06-27T00:52:58.363Z,99.90
2019-06-27T00:55:27.645Z,99.90
2019-06-27T00:57:56.914Z,99.90
2019-06-27T01:00:26.394Z,99.90
2019-06-27T01:02:55.631Z,99.90
2019-06-27T01:05:24.856Z,99.90
2019-06-27T01:07:54.496Z,99.90
2019-06-27T01:10:24.725Z,99.90
2019-06-27T01:12:54.048Z,99.90
2019-06-27T01:15:23.279Z,99.90
2019-06-27T01:17:52.591Z,99.90
2019-06-27T01:20:21.945Z,99.90
2019-06-27T01:22:51.207Z,99.90
2019-06-27T01:25:20.549Z,99.90
2019-06-27T01:27:49.743Z,99.90
2019-06-27T01:30:19.331Z,99.90
2019-06-27T01:32:48.516Z,99.90
2019-06-27T01:35:18.488Z,99.90
2019-06-27T01:37:47.826Z,99.90
2019-06-27T01:40:18.228Z,99.90
2019-06-27T01:42:47.691Z,99.90
2019-06-27T01:45:25.698Z,99.90
2019-06-27T01:47:55.269Z,99.90
2019-06-27T01:50:24.485Z,99.90
2019-06-27T01:52:53.881Z,99.90
2019-06-27T01:55:23.152Z,99.90
2019-06-27T01:57:52.508Z,99.90
2019-06-27T02:00:22.156Z,99.90
2019-06-27T02:02:51.440Z,99.90
2019-06-27T02:05:20.834Z,99.90
2019-06-27T02:07:50.135Z,99.90
2019-06-27T02:10:20.973Z,99.90
2019-06-27T02:12:50.250Z,99.90
2019-06-27T02:15:22.264Z,99.90
2019-06-27T02:17:50.930Z,99.90
2019-06-27T02:20:21.496Z,99.90
2019-06-27T02:22:50.938Z,99.90
2019-06-27T02:25:21.841Z,99.90
2019-06-27T02:28:03.229Z,99.90
2019-06-27T02:30:30.680Z,99.90
2019-06-27T02:32:59.990Z,99.90
2019-06-27T02:35:29.297Z,99.90
2019-06-27T02:37:58.603Z,99.90
2019-06-27T02:40:27.855Z,99.90
2019-06-27T02:42:57.055Z,99.90
2019-06-27T02:45:45.407Z,99.90
2019-06-27T02:48:14.801Z,99.90
2019-06-27T02:50:43.986Z,99.90
2019-06-27T02:53:13.351Z,99.90
2019-06-27T02:55:42.659Z,99.90
2019-06-27T02:58:28.859Z,99.90
2019-06-27T03:00:42.931Z,99.90
2019-06-27T03:03:12.152Z,99.90
2019-06-27T03:05:41.533Z,99.90
2019-06-27T03:08:10.795Z,99.90
2019-06-27T03:10:39.996Z,99.90
2019-06-27T03:13:09.258Z,99.90
2019-06-27T03:15:38.466Z,99.90
2019-06-27T03:18:07.736Z,99.90
2019-06-27T03:20:37.008Z,99.90
2019-06-27T03:23:13.901Z,99.90
2019-06-27T03:25:44.792Z,99.90
2019-06-27T03:28:14.097Z,99.90
2019-06-27T03:30:43.415Z,99.90
2019-06-27T03:33:12.684Z,99.90
2019-06-27T03:35:42.008Z,99.90
2019-06-27T03:38:11.366Z,99.90
2019-06-27T03:40:40.553Z,99.90
2019-06-27T03:43:09.753Z,99.90
2019-06-27T03:45:39.181Z,99.90
2019-06-27T03:48:08.528Z,99.90
2019-06-27T03:50:37.757Z,99.90
2019-06-27T03:53:06.983Z,99.90
2019-06-27T03:55:36.232Z,99.90
2019-06-27T03:58:05.410Z,99.90
2019-06-27T04:00:35.698Z,99.90
2019-06-27T04:03:04.991Z,99.90
2019-06-27T04:05:34.224Z,99.90
2019-06-27T04:08:04.231Z,99.90
2019-06-27T04:10:33.489Z,99.90
2019-06-27T04:13:03.070Z,99.90
2019-06-27T04:15:32.410Z,99.90
2019-06-27T04:18:01.617Z,99.90
2019-06-27T04:20:30.919Z,99.90
2019-06-27T04:23:00.177Z,99.90
2019-06-27T04:25:29.435Z,99.90
2019-06-27T04:28:00.159Z,99.90
2019-06-27T04:30:29.574Z,99.90
2019-06-27T04:32:58.843Z,99.90
2019-06-27T04:35:45.400Z,99.90
2019-06-27T04:38:14.888Z,99.90
2019-06-27T04:40:44.063Z,99.90
2019-06-27T04:43:13.519Z,99.90
2019-06-27T04:45:43.257Z,99.90
2019-06-27T04:48:12.602Z,99.90
2019-06-27T04:50:42.016Z,99.90
2019-06-27T04:53:11.247Z,99.90
2019-06-27T04:55:40.600Z,99.90
2019-06-27T04:58:09.825Z,99.90
2019-06-27T05:00:39.040Z,99.90
2019-06-27T05:03:08.189Z,99.90
2019-06-27T05:05:37.367Z,99.90
2019-06-27T05:08:06.613Z,99.90
2019-06-27T05:10:35.793Z,99.90
2019-06-27T05:13:05.233Z,99.90
2019-06-27T05:15:34.403Z,99.90
2019-06-27T05:18:03.643Z,99.90
2019-06-27T05:20:32.951Z,99.90
2019-06-27T05:23:04.713Z,99.90
2019-06-27T05:25:33.917Z,99.90
2019-06-27T05:28:03.217Z,99.90
2019-06-27T05:30:32.402Z,99.90
2019-06-27T05:33:01.660Z,99.90
2019-06-27T05:35:31.009Z,99.90
2019-06-27T05:38:00.256Z,99.90
2019-06-27T05:40:29.517Z,99.90
2019-06-27T05:42:58.767Z,99.90
2019-06-27T05:45:28.004Z,99.90
2019-06-27T05:47:57.253Z,99.90
2019-06-27T05:50:26.534Z,99.90
2019-06-27T05:52:56.968Z,99.90
2019-06-27T05:55:38.632Z,99.90
2019-06-27T05:58:07.881Z,99.90
2019-06-27T06:00:37.141Z,99.90
2019-06-27T06:03:06.443Z,99.90
2019-06-27T06:05:35.710Z,99.90
2019-06-27T06:08:05.261Z,99.90
2019-06-27T06:10:34.874Z,99.90
2019-06-27T06:13:04.070Z,99.90
2019-06-27T06:15:33.574Z,99.90
2019-06-27T06:18:02.878Z,99.90
2019-06-27T06:20:32.112Z,99.90
2019-06-27T06:23:01.355Z,99.90
2019-06-27T06:25:30.574Z,99.90
2019-06-27T06:27:59.976Z,99.90
2019-06-27T06:30:43.223Z,99.90
2019-06-27T06:33:00.195Z,99.90
2019-06-27T06:35:29.454Z,99.90
2019-06-27T06:37:58.748Z,99.90
2019-06-27T06:40:27.926Z,99.90
2019-06-27T06:43:00.482Z,99.90
2019-06-27T06:45:28.038Z,99.90
2019-06-27T06:47:58.720Z,99.90
2019-06-27T06:50:27.984Z,99.90
2019-06-27T06:52:57.374Z,99.90
2019-06-27T06:55:26.567Z,99.90
2019-06-27T06:57:55.795Z,99.90
2019-06-27T07:00:25.553Z,99.90
2019-06-27T07:02:54.763Z,99.90
2019-06-27T07:05:24.285Z,99.90
2019-06-27T07:07:53.527Z,99.90
2019-06-27T07:10:22.891Z,99.90
2019-06-27T07:12:52.100Z,99.90
2019-06-27T07:15:21.600Z,99.90
2019-06-27T07:17:50.957Z,99.90
2019-06-27T07:20:20.228Z,99.90
2019-06-27T07:22:49.495Z,99.90
2019-06-27T07:25:18.762Z,99.90
2019-06-27T07:27:48.014Z,99.90
2019-06-27T07:30:17.413Z,99.90
2019-06-27T07:32:46.656Z,99.90
2019-06-27T07:35:15.917Z,99.90
2019-06-27T07:37:45.220Z,99.90
2019-06-27T07:40:14.719Z,99.90
2019-06-27T07:42:44.046Z,99.90
2019-06-27T07:45:13.244Z,99.90
2019-06-27T07:47:42.426Z,99.90
2019-06-27T07:50:11.975Z,99.90
2019-06-27T07:52:41.259Z,99.90
2019-06-27T07:55:10.732Z,99.90
2019-06-27T07:57:39.998Z,99.90
2019-06-27T08:00:10.127Z,99.90
2019-06-27T08:02:39.514Z,99.90
2019-06-27T08:05:09.160Z,99.90
2019-06-27T08:07:38.685Z,99.90
2019-06-27T08:10:08.429Z,99.90
2019-06-27T08:12:37.734Z,99.90
2019-06-27T08:15:07.369Z,99.90
2019-06-27T08:17:36.624Z,99.90
2019-06-27T08:20:06.143Z,99.90
2019-06-27T08:22:35.506Z,99.90
2019-06-27T08:25:05.258Z,99.90
2019-06-27T08:27:34.592Z,99.90
2019-06-27T08:30:08.037Z,99.90
2019-06-27T08:32:35.112Z,99.90
2019-06-27T08:35:23.401Z,99.90
2019-06-27T08:37:52.711Z,99.90
2019-06-27T08:40:22.477Z,99.90
2019-06-27T08:42:51.737Z,99.90
2019-06-27T08:45:21.073Z,99.90
2019-06-27T08:47:50.362Z,99.90
2019-06-27T08:50:19.733Z,99.90
2019-06-27T08:52:49.025Z,99.60
2019-06-27T08:55:18.434Z,99.30
2019-06-27T08:57:47.849Z,99.90
2019-06-27T09:00:17.623Z,98.20
2019-06-27T09:02:46.889Z,99.20
2019-06-27T09:05:16.287Z,99.40
2019-06-27T09:07:45.531Z,98.50
2019-06-27T09:10:15.802Z,97.90
2019-06-27T09:12:45.099Z,98.40
2019-06-27T09:15:15.583Z,99.80
2019-06-27T09:17:47.034Z,98.00
2019-06-27T09:20:19.318Z,98.00
2019-06-27T09:22:48.602Z,98.00
2019-06-27T09:25:17.877Z,98.30
2019-06-27T09:27:47.112Z,98.80
2019-06-27T09:30:16.528Z,97.70
2019-06-27T09:32:45.740Z,97.60
2019-06-27T09:35:14.985Z,98.90
2019-06-27T09:37:44.180Z,98.40
2019-06-27T09:40:13.803Z,98.50
2019-06-27T09:42:43.190Z,98.00
2019-06-27T09:45:12.593Z,97.90
2019-06-27T09:47:42.112Z,97.40
2019-06-27T09:50:11.558Z,97.40
2019-06-27T09:52:41.016Z,98.80
2019-06-27T09:55:10.505Z,98.80
2019-06-27T09:57:39.762Z,99.20
2019-06-27T10:00:12.052Z,98.10
2019-06-27T10:02:42.746Z,97.50
2019-06-27T10:05:12.461Z,97.70
2019-06-27T10:07:41.936Z,97.40
2019-06-27T10:10:14.584Z,96.60
2019-06-27T10:12:43.810Z,96.10
2019-06-27T10:15:13.863Z,96.70
2019-06-27T10:17:43.851Z,97.50
2019-06-27T10:20:14.115Z,97.20
2019-06-27T10:22:43.481Z,96.90
2019-06-27T10:25:13.548Z,96.90
2019-06-27T10:27:42.746Z,97.10
2019-06-27T10:30:12.443Z,97.00
2019-06-27T10:32:54.414Z,97.80
2019-06-27T10:35:12.821Z,97.90
2019-06-27T10:37:42.193Z,98.40
2019-06-27T10:40:11.724Z,98.70
2019-06-27T10:42:40.923Z,97.60
2019-06-27T10:45:10.837Z,97.60
2019-06-27T10:47:40.208Z,97.00
2019-06-27T10:50:09.877Z,97.30
2019-06-27T10:52:39.259Z,99.10
2019-06-27T10:55:08.563Z,98.70
2019-06-27T10:57:37.939Z,99.40
2019-06-27T11:00:07.881Z,99.90
2019-06-27T11:02:37.088Z,99.90
2019-06-27T11:05:06.501Z,99.90
2019-06-27T11:07:35.815Z,99.90
2019-06-27T11:10:05.331Z,99.90
2019-06-27T11:12:34.640Z,99.90
2019-06-27T11:15:04.403Z,99.90
2019-06-27T11:17:33.907Z,99.90
2019-06-27T11:20:03.200Z,99.90
2019-06-27T11:22:32.495Z,99.90
2019-06-27T11:25:02.131Z,99.90
2019-06-27T11:27:31.880Z,99.90
2019-06-27T11:30:13.006Z,99.90
2019-06-27T11:32:42.390Z,99.90
2019-06-27T11:35:11.916Z,99.90
2019-06-27T11:37:41.734Z,99.90
2019-06-27T11:40:12.549Z,99.90
2019-06-27T11:42:41.912Z,99.90
2019-06-27T11:45:11.209Z,99.90
2019-06-27T11:47:40.495Z,99.90
2019-06-27T11:50:10.064Z,99.90
2019-06-27T11:52:39.467Z,99.90
2019-06-27T11:55:09.030Z,99.90
2019-06-27T11:57:38.318Z,99.90
2019-06-27T12:00:07.739Z,99.90
2019-06-27T12:02:37.037Z,99.90
2019-06-27T12:05:06.867Z,99.90
2019-06-27T12:07:36.282Z,99.90
2019-06-27T12:10:05.937Z,99.90
2019-06-27T12:12:35.213Z,99.90
2019-06-27T12:15:05.000Z,99.90
2019-06-27T12:17:34.337Z,99.90
2019-06-27T12:20:03.732Z,99.90
2019-06-27T12:22:33.063Z,99.90
2019-06-27T12:25:02.321Z,99.90
2019-06-27T12:27:31.548Z,99.90
2019-06-27T12:30:00.756Z,99.90
2019-06-27T12:32:30.099Z,99.90
2019-06-27T12:34:59.399Z,99.90
2019-06-27T12:37:28.603Z,99.90
2019-06-27T12:39:57.796Z,99.90
2019-06-27T12:42:32.429Z,99.90
2019-06-27T12:44:58.036Z,99.90
2019-06-27T12:47:27.256Z,99.90
2019-06-27T12:50:02.549Z,99.90
2019-06-27T12:52:27.601Z,99.90
2019-06-27T12:54:56.849Z,99.90
2019-06-27T12:57:26.063Z,99.90
2019-06-27T12:59:55.300Z,99.90
2019-06-27T13:02:24.514Z,99.90
2019-06-27T13:04:53.795Z,99.90
2019-06-27T13:07:23.059Z,99.90
2019-06-27T13:09:52.336Z,99.90
2019-06-27T13:12:21.537Z,99.90
2019-06-27T13:14:50.703Z,99.90
2019-06-27T13:17:20.023Z,99.90
2019-06-27T13:19:49.314Z,99.90
2019-06-27T13:22:18.588Z,99.90
2019-06-27T13:24:47.943Z,99.90
2019-06-27T13:27:17.289Z,99.90
2019-06-27T13:29:46.548Z,99.90
2019-06-27T13:32:15.951Z,99.90
2019-06-27T13:34:45.366Z,99.90
2019-06-27T13:37:14.696Z,99.90
2019-06-27T13:39:43.988Z,99.90
2019-06-27T13:42:13.291Z,99.90
2019-06-27T13:44:42.518Z,99.90
2019-06-27T13:47:11.904Z,99.90
2019-06-27T13:49:44.886Z,99.90
2019-06-27T13:52:12.089Z,99.90
2019-06-27T13:54:41.332Z,99.90
2019-06-27T13:57:10.710Z,99.90
2019-06-27T13:59:39.974Z,99.90
2019-06-27T14:02:09.292Z,99.90
2019-06-27T14:04:38.506Z,99.90
2019-06-27T14:07:07.777Z,99.90
2019-06-27T14:09:50.886Z,99.90
2019-06-27T14:12:07.882Z,99.90
2019-06-27T14:14:37.090Z,99.90
2019-06-27T14:17:06.467Z,99.90
2019-06-27T14:19:35.720Z,99.90
2019-06-27T14:22:04.962Z,99.90
2019-06-27T14:24:34.425Z,99.90
2019-06-27T14:27:04.838Z,99.90
2019-06-27T14:29:34.300Z,99.90
2019-06-27T14:32:03.657Z,99.90
2019-06-27T14:34:32.952Z,99.90
2019-06-27T14:37:02.289Z,99.90
2019-06-27T14:39:31.635Z,99.90
2019-06-27T14:42:00.952Z,99.90
2019-06-27T14:44:30.282Z,99.90
2019-06-27T14:46:59.485Z,99.90
2019-06-27T14:49:29.493Z,99.90
2019-06-27T14:51:58.837Z,99.90
2019-06-27T14:54:28.061Z,99.90
2019-06-27T14:56:57.264Z,99.90
2019-06-27T14:59:26.573Z,99.90
2019-06-27T15:01:55.831Z,99.90
2019-06-27T15:04:25.065Z,99.90
2019-06-27T15:06:54.351Z,99.90
2019-06-27T15:09:23.641Z,99.90
2019-06-27T15:11:52.863Z,99.90
2019-06-27T15:14:22.111Z,99.90
2019-06-27T15:16:51.425Z,99.90
2019-06-27T15:19:20.875Z,99.90
2019-06-27T15:21:50.169Z,99.90
2019-06-27T15:24:19.452Z,99.90
2019-06-27T15:26:48.742Z,99.90
2019-06-27T15:29:18.037Z,99.90
2019-06-27T15:31:47.241Z,99.90
2019-06-27T15:34:16.549Z,99.90
2019-06-27T15:36:45.850Z,99.90
2019-06-27T15:39:15.204Z,99.90
2019-06-27T15:41:44.420Z,99.90
2019-06-27T15:44:13.754Z,99.90
2019-06-27T15:46:43.042Z,99.90
2019-06-27T15:49:12.352Z,99.90
2019-06-27T15:51:41.656Z,99.90
2019-06-27T15:54:10.844Z,99.90
2019-06-27T15:56:40.226Z,99.90
2019-06-27T15:59:09.553Z,99.90
2019-06-27T16:01:38.930Z,99.90
2019-06-27T16:04:08.265Z,99.90
2019-06-27T16:06:37.710Z,99.90
2019-06-27T16:09:07.504Z,99.90
2019-06-27T16:11:36.974Z,99.90
2019-06-27T16:14:06.303Z,99.90
2019-06-27T16:16:35.577Z,99.90
2019-06-27T16:19:04.871Z,99.90
2019-06-27T16:21:34.175Z,99.90
2019-06-27T16:24:03.481Z,99.90
2019-06-27T16:26:32.758Z,99.90
2019-06-27T16:29:02.156Z,99.90
2019-06-27T16:31:31.450Z,99.90
2019-06-27T16:34:00.713Z,99.90
2019-06-27T16:36:30.056Z,99.90
2019-06-27T16:38:59.290Z,99.90
2019-06-27T16:41:28.583Z,99.90
2019-06-27T16:43:57.892Z,99.90
2019-06-27T16:46:27.188Z,99.90
2019-06-27T16:48:58.913Z,99.90
2019-06-27T16:51:28.136Z,99.90
2019-06-27T16:53:57.430Z,99.90
2019-06-27T16:56:26.680Z,99.90
2019-06-27T16:58:56.062Z,99.90
2019-06-27T17:01:25.340Z,99.90
2019-06-27T17:03:54.754Z,99.90
2019-06-27T17:06:24.116Z,99.90
2019-06-27T17:08:53.307Z,99.90
2019-06-27T17:11:22.609Z,99.90
2019-06-27T17:13:51.874Z,99.90
2019-06-27T17:16:22.347Z,99.90
2019-06-27T17:18:51.818Z,99.90
2019-06-27T17:21:21.020Z,99.90
2019-06-27T17:23:50.343Z,99.90
2019-06-27T17:26:19.739Z,99.90
2019-06-27T17:28:49.019Z,99.90
2019-06-27T17:31:18.392Z,99.90
2019-06-27T17:33:47.701Z,99.90
2019-06-27T17:36:16.915Z,99.90
2019-06-27T17:38:46.194Z,99.90
2019-06-27T17:41:15.577Z,99.90
2019-06-27T17:43:44.926Z,99.90
2019-06-27T17:46:14.194Z,99.90
2019-06-27T17:48:43.451Z,99.90
2019-06-27T17:51:12.737Z,99.90
2019-06-27T17:53:42.817Z,99.90
2019-06-27T17:56:12.154Z,99.90
2019-06-27T17:58:41.471Z,99.90
2019-06-27T18:01:10.771Z,99.90
2019-06-27T18:03:40.141Z,99.90
2019-06-27T18:06:09.404Z,99.90
2019-06-27T18:08:38.803Z,99.90
2019-06-27T18:11:08.279Z,99.90
2019-06-27T18:13:37.543Z,99.90
2019-06-27T18:16:06.803Z,99.90
2019-06-27T18:18:36.293Z,99.90
2019-06-27T18:21:05.621Z,99.90
2019-06-27T18:23:34.870Z,99.90
2019-06-27T18:26:05.826Z,99.90
2019-06-27T18:28:35.112Z,99.90
2019-06-27T18:31:04.456Z,99.90
2019-06-27T18:33:33.660Z,99.90
2019-06-27T18:36:03.334Z,99.90
2019-06-27T18:38:32.718Z,99.90
2019-06-27T18:41:01.991Z,99.90
2019-06-27T18:43:32.434Z,99.90
2019-06-27T18:46:01.699Z,99.90
2019-06-27T18:48:30.884Z,99.90
2019-06-27T18:51:00.162Z,99.90
2019-06-27T18:53:29.558Z,99.90
2019-06-27T18:55:58.756Z,99.90
2019-06-27T18:58:27.994Z,99.90
2019-06-27T19:00:59.501Z,99.90
2019-06-27T19:03:28.824Z,99.90
2019-06-27T19:05:58.117Z,99.90
2019-06-27T19:08:27.489Z,99.90
2019-06-27T19:10:56.723Z,99.90
2019-06-27T19:13:26.105Z,99.90
2019-06-27T19:15:55.377Z,99.90
2019-06-27T19:18:48.901Z,99.90
2019-06-27T19:21:29.733Z,99.90
2019-06-27T19:24:04.480Z,99.90
2019-06-27T19:26:33.756Z,99.90
2019-06-27T19:29:03.133Z,99.90
2019-06-27T19:31:32.523Z,99.90
2019-06-27T19:34:01.809Z,99.90
2019-06-27T19:36:30.986Z,99.90
2019-06-27T19:39:00.233Z,99.90
2019-06-27T19:41:37.575Z,99.90
2019-06-27T19:44:06.988Z,99.90
2019-06-27T19:46:36.324Z,99.90
2019-06-27T19:49:05.720Z,99.90
2019-06-27T19:51:34.961Z,99.90
2019-06-27T19:54:04.262Z,99.90
2019-06-27T19:56:33.456Z,99.90
2019-06-27T19:59:02.763Z,99.90
2019-06-27T20:01:32.033Z,99.90
2019-06-27T20:04:01.274Z,99.90
2019-06-27T20:06:30.528Z,99.90
2019-06-27T20:08:59.768Z,99.90
2019-06-27T20:11:29.093Z,99.90
2019-06-27T20:13:58.328Z,99.90
2019-06-27T20:16:27.525Z,99.90
2019-06-27T20:18:56.832Z,99.90
2019-06-27T20:21:26.532Z,99.90
2019-06-27T20:23:55.745Z,99.90
2019-06-27T20:26:25.296Z,99.90
2019-06-27T20:28:54.818Z,99.90
2019-06-27T20:31:24.134Z,99.90
2019-06-27T20:33:53.483Z,99.90
2019-06-27T20:36:22.866Z,99.90
2019-06-27T20:38:52.169Z,99.90
2019-06-27T20:41:21.591Z,99.90
2019-06-27T20:43:51.022Z,99.90
2019-06-27T20:46:21.321Z,99.90
2019-06-27T20:48:53.768Z,99.90
2019-06-27T20:51:21.617Z,99.90
2019-06-27T20:53:50.875Z,99.90
2019-06-27T20:56:20.119Z,99.90
2019-06-27T20:58:52.416Z,99.90
2019-06-27T21:01:21.663Z,99.90
2019-06-27T21:03:50.891Z,99.90
2019-06-27T21:06:20.103Z,99.90
2019-06-27T21:09:08.411Z,99.90
2019-06-27T21:11:37.703Z,99.90
2019-06-27T21:14:07.004Z,99.90
2019-06-27T21:16:36.199Z,99.90
2019-06-27T21:19:05.554Z,99.90
2019-06-27T21:21:34.819Z,99.90
2019-06-27T21:24:04.299Z,99.90
2019-06-27T21:26:33.726Z,99.90
2019-06-27T21:29:03.008Z,99.90
2019-06-27T21:31:32.291Z,99.90
2019-06-27T21:34:01.526Z,99.90
2019-06-27T21:36:30.717Z,99.90
2019-06-27T21:39:07.599Z,99.90
2019-06-27T21:41:33.105Z,99.90
2019-06-27T21:44:02.317Z,99.90
2019-06-27T21:46:31.553Z,99.90
2019-06-27T21:49:00.841Z,99.90
2019-06-27T21:51:30.080Z,99.90
2019-06-27T21:53:59.308Z,99.90
2019-06-27T21:56:28.610Z,99.90
2019-06-27T21:58:58.214Z,99.90
2019-06-27T22:01:27.581Z,99.90
2019-06-27T22:03:56.808Z,99.90
2019-06-27T22:06:26.176Z,99.90
2019-06-27T22:08:55.548Z,99.90
2019-06-27T22:11:24.990Z,99.90
2019-06-27T22:13:54.263Z,99.90
2019-06-27T22:16:23.736Z,99.90
2019-06-27T22:18:53.018Z,99.90
2019-06-27T22:21:22.567Z,99.90
2019-06-27T22:23:51.949Z,99.90
2019-06-27T22:26:21.240Z,99.90
2019-06-27T22:28:50.500Z,99.90
2019-06-27T22:31:19.778Z,99.90
2019-06-27T22:33:48.971Z,99.90
2019-06-27T22:36:18.434Z,99.90
2019-06-27T22:39:05.933Z,99.90
2019-06-27T22:41:52.979Z,99.90
2019-06-27T22:44:40.141Z,99.90
2019-06-27T22:47:27.317Z,99.90
2019-06-27T22:49:55.813Z,99.90
2019-06-27T22:52:42.762Z,99.90
2019-06-27T22:55:22.553Z,99.90
2019-06-27T22:57:51.755Z,99.90
2019-06-27T23:00:21.131Z,99.90
2019-06-27T23:02:50.347Z,99.90
2019-06-27T23:05:19.527Z,99.90
2019-06-27T23:07:48.925Z,99.90
2019-06-27T23:10:18.318Z,99.90
2019-06-27T23:12:47.725Z,99.90
2019-06-27T23:15:16.991Z,99.90
2019-06-27T23:17:46.457Z,99.90
2019-06-27T23:20:15.861Z,99.90
2019-06-27T23:22:45.090Z,99.90
2019-06-27T23:25:14.577Z,99.90
2019-06-27T23:27:43.827Z,99.90
2019-06-27T23:30:13.031Z,99.90
2019-06-27T23:32:42.239Z,99.90
2019-06-27T23:35:11.524Z,99.90
2019-06-27T23:37:40.797Z,99.90
2019-06-27T23:40:14.538Z,99.90
2019-06-27T23:42:41.551Z,99.90
2019-06-27T23:45:11.067Z,99.90
2019-06-27T23:47:40.352Z,99.90
2019-06-27T23:50:09.773Z,99.90
2019-06-27T23:52:39.064Z,99.90
2019-06-27T23:55:08.275Z,99.90
2019-06-27T23:57:37.469Z,99.90
